Main page
METAR-TAF:

METAR-TAF

Airports :

Gombe Lawanti International Airport

Gombe, Nigeria

latitude: 10-18-19N, longitude: 10-54-31E, elevation: 505 m

Current weather observation

The report was made 1 hour and 33 minutes ago, at 15:00 UTC
Calm wind
Temperature 34°C
Humidity 47%
Pressure 1010 hPa
Visibility 10 km or more
no clouds below 1500 m and no cumulonimbus

METAR: DNGO 251500Z 00000KT CAVOK 34/21 Q1010

Time: 17:33 (16:33 UTC)

Forecast

The report was made 29 hours and 33 minutes ago, at 11:00 UTC
Forecast valid from 24 at 12 UTC to 25 at 18 UTC
Wind 10 kt from the East
Visibility 10 km or more
no clouds below 1500 m and no cumulonimbus
Temporary
from 24 at 14 UTC to 24 at 20 UTC
Scattered clouds at a height of 1300 ft
Few clouds at a height of 2000 ft, Cumulonimbus.
thunderstorm

TAF: DNGO 241100Z 2412/2518 10010KT CAVOK TEMPO 2414/2420 TS SCT013 FEW020CB

Weather observations and forecasts of more than 4000 airports (METAR and TAF reports).

The available stations are represented by yellow and red dots on the map.

Hover mouse over dot to see the name of the station.

Then click to see weather observations and forecasts.

To change the map : click on the green buttons with a black cross to zoom in, on the green button with a dash to zoom out, or on the green arrows for adjacent maps.


METAR-TAF: